createdAt,value
2022-12-01T00:00:18.765Z,27.33
2022-12-01T00:05:21.197Z,26.38
2022-12-01T00:10:28.547Z,26.33
2022-12-01T00:15:30.759Z,26.00
2022-12-01T00:20:34.555Z,25.08
2022-12-01T00:25:35.396Z,24.02
2022-12-01T00:30:36.201Z,24.90
2022-12-01T00:35:38.427Z,23.05
2022-12-01T00:40:39.229Z,24.17
2022-12-01T00:45:40.051Z,22.20
2022-12-01T00:50:42.390Z,24.42
2022-12-01T00:55:43.174Z,25.67
2022-12-01T01:00:43.999Z,24.20
2022-12-01T01:05:46.140Z,24.60
2022-12-01T01:10:49.094Z,22.10
2022-12-01T01:15:59.258Z,23.65
2022-12-01T01:21:02.840Z,22.45
2022-12-01T01:26:04.851Z,22.75
2022-12-01T01:31:07.306Z,24.80
2022-12-01T01:36:10.105Z,24.42
2022-12-01T01:41:11.796Z,25.45
2022-12-01T01:46:15.383Z,24.55
2022-12-01T01:51:21.705Z,24.90
2022-12-01T01:56:23.620Z,24.60
2022-12-01T02:01:24.512Z,22.45
2022-12-01T02:06:26.738Z,23.73
2022-12-01T02:12:00.304Z,24.27
2022-12-01T02:17:05.139Z,25.02
2022-12-01T02:22:20.064Z,24.92
2022-12-01T02:27:34.571Z,23.98
2022-12-01T02:32:46.920Z,24.20
2022-12-01T02:37:58.354Z,22.30
2022-12-01T02:43:05.227Z,24.55
2022-12-01T02:48:12.858Z,24.70
2022-12-01T02:53:16.794Z,23.70
2022-12-01T02:58:17.773Z,23.60
2022-12-01T03:03:36.128Z,24.05
2022-12-01T03:08:49.010Z,23.75
2022-12-01T03:13:56.395Z,23.63
2022-12-01T03:19:05.104Z,23.45
2022-12-01T03:24:10.527Z,25.60
2022-12-01T03:29:14.885Z,24.23
2022-12-01T03:34:24.075Z,24.38
2022-12-01T03:39:29.129Z,23.75
2022-12-01T03:44:35.741Z,23.67
2022-12-01T03:49:39.889Z,23.27
2022-12-01T03:54:50.170Z,25.17
2022-12-01T03:59:51.425Z,23.38
2022-12-01T04:04:53.663Z,24.92
2022-12-01T04:09:54.427Z,24.73
2022-12-01T04:14:55.279Z,26.17
2022-12-01T04:19:57.638Z,26.27
2022-12-01T04:24:58.431Z,26.08
2022-12-01T04:29:59.288Z,27.05
2022-12-01T04:35:01.398Z,28.05
2022-12-01T04:40:02.192Z,27.85
2022-12-01T04:45:03.015Z,28.10
2022-12-01T04:50:06.015Z,27.90
2022-12-01T04:55:08.471Z,27.38
2022-12-01T05:00:13.308Z,29.80
2022-12-01T05:05:15.512Z,27.50
2022-12-01T05:10:19.050Z,27.55
2022-12-01T05:15:19.937Z,26.95
2022-12-01T05:20:41.700Z,29.55
2022-12-01T05:25:42.525Z,30.75
2022-12-01T05:30:44.105Z,28.58
2022-12-01T05:35:46.296Z,28.58
2022-12-01T05:40:51.399Z,27.02
2022-12-01T05:45:52.251Z,29.60
2022-12-01T05:50:54.493Z,29.67
2022-12-01T05:55:55.392Z,29.23
2022-12-01T06:00:56.173Z,30.98
2022-12-01T06:05:58.371Z,29.80
2022-12-01T06:10:59.173Z,29.98
2022-12-01T06:16:01.171Z,26.33
2022-12-01T06:21:04.137Z,27.63
2022-12-01T06:26:05.166Z,26.60
2022-12-01T06:31:06.242Z,28.92
2022-12-01T06:36:10.483Z,29.67
2022-12-01T06:41:11.534Z,30.48
2022-12-01T06:46:12.376Z,30.67
2022-12-01T06:51:14.558Z,27.58
2022-12-01T06:56:16.312Z,27.95
2022-12-01T07:01:18.003Z,31.20
2022-12-01T07:06:20.242Z,26.95
2022-12-01T07:11:21.200Z,28.27
2022-12-01T07:16:22.476Z,28.83
2022-12-01T07:21:24.910Z,29.02
2022-12-01T07:26:25.682Z,30.30
2022-12-01T07:31:26.535Z,30.73
2022-12-01T07:36:34.634Z,31.55
2022-12-01T07:41:36.637Z,32.35
2022-12-01T07:46:37.895Z,31.40
2022-12-01T07:51:40.048Z,33.35
2022-12-01T07:56:41.020Z,33.00
2022-12-01T08:01:44.740Z,34.08
2022-12-01T08:06:47.274Z,32.10
2022-12-01T08:11:48.113Z,32.95
2022-12-01T08:16:49.863Z,30.92
2022-12-01T08:21:51.995Z,32.60
2022-12-01T08:26:53.016Z,32.63
2022-12-01T08:31:53.829Z,33.75
2022-12-01T08:36:55.953Z,30.48
2022-12-01T08:41:56.776Z,33.50
2022-12-01T08:46:57.655Z,34.55
2022-12-01T08:51:59.833Z,34.83
2022-12-01T08:57:00.718Z,35.42
2022-12-01T09:02:06.751Z,35.90
2022-12-01T09:07:11.539Z,37.85
2022-12-01T09:12:13.313Z,35.88
2022-12-01T09:17:14.087Z,37.90
2022-12-01T09:22:16.236Z,38.63
2022-12-01T09:27:17.115Z,36.58
2022-12-01T09:32:17.960Z,35.67
2022-12-01T09:37:20.101Z,38.35
2022-12-01T09:42:32.179Z,36.13
2022-12-01T09:47:36.628Z,35.92
2022-12-01T09:52:44.800Z,35.03
2022-12-01T09:57:48.651Z,35.72
2022-12-01T10:02:53.888Z,32.67
2022-12-01T10:08:00.464Z,34.70
2022-12-01T10:13:01.515Z,34.95
2022-12-01T10:18:11.740Z,37.17
2022-12-01T10:23:45.248Z,34.55
2022-12-01T10:28:54.983Z,34.75
2022-12-01T10:34:02.443Z,31.95
2022-12-01T10:39:07.622Z,32.10
2022-12-01T10:44:09.629Z,35.15
2022-12-01T10:49:12.855Z,32.55
2022-12-01T10:54:15.236Z,32.55
2022-12-01T10:59:29.073Z,33.58
2022-12-01T11:04:37.589Z,33.65
2022-12-01T11:09:39.912Z,34.65
2022-12-01T11:14:45.861Z,32.35
2022-12-01T11:19:46.725Z,32.47
2022-12-01T11:24:59.002Z,33.75
2022-12-01T11:30:04.864Z,33.78
2022-12-01T11:35:15.709Z,33.55
2022-12-01T11:40:22.882Z,33.28
2022-12-01T11:45:32.225Z,30.73
2022-12-01T11:50:35.596Z,33.65
2022-12-01T11:55:37.773Z,32.00
2022-12-01T12:00:46.785Z,35.15
2022-12-01T12:06:31.844Z,30.38
2022-12-01T12:11:32.593Z,29.65
2022-12-01T12:16:48.189Z,31.05
2022-12-01T12:22:01.226Z,30.83
2022-12-01T12:27:11.769Z,29.23
2022-12-01T12:32:31.676Z,30.77
2022-12-01T12:37:42.268Z,28.60
2022-12-01T12:42:57.750Z,30.10
2022-12-01T12:48:13.571Z,31.85
2022-12-01T12:53:19.293Z,30.45
2022-12-01T12:58:31.464Z,31.80
2022-12-01T13:03:39.714Z,30.15
2022-12-01T13:08:45.559Z,31.05
2022-12-01T13:14:02.935Z,31.50
2022-12-01T13:19:12.092Z,29.25
2022-12-01T13:24:21.290Z,28.50
2022-12-01T13:29:27.143Z,28.75
2022-12-01T13:34:34.659Z,30.40
2022-12-01T13:39:38.282Z,30.92
2022-12-01T13:44:44.248Z,31.10
2022-12-01T13:49:47.854Z,30.42
2022-12-01T13:55:22.674Z,31.67
2022-12-01T14:00:28.167Z,31.63
2022-12-01T14:05:45.848Z,29.35
2022-12-01T14:10:55.708Z,29.15
2022-12-01T14:15:59.995Z,29.58
2022-12-01T14:21:03.154Z,30.95
2022-12-01T14:26:16.794Z,30.33
2022-12-01T14:31:18.989Z,32.10
2022-12-01T14:36:37.699Z,29.65
2022-12-01T14:41:44.483Z,32.17
2022-12-01T14:46:54.254Z,33.00
2022-12-01T14:52:00.040Z,31.50
2022-12-01T14:57:07.472Z,29.77
2022-12-01T15:02:12.478Z,33.72
2022-12-01T15:07:13.618Z,30.42
2022-12-01T15:12:27.087Z,31.05
2022-12-01T15:17:36.960Z,30.48
2022-12-01T15:22:42.220Z,32.17
2022-12-01T15:27:44.704Z,30.55
2022-12-01T15:32:46.970Z,30.83
2022-12-01T15:37:49.317Z,29.45
2022-12-01T15:43:02.707Z,29.65
2022-12-01T15:48:16.376Z,31.23
2022-12-01T15:53:23.503Z,30.52
2022-12-01T15:58:26.659Z,29.27
2022-12-01T16:03:29.746Z,28.63
2022-12-01T16:08:30.681Z,29.55
2022-12-01T16:13:42.320Z,28.33
2022-12-01T16:18:53.852Z,30.50
2022-12-01T16:24:02.695Z,28.83
2022-12-01T16:29:03.584Z,30.38
2022-12-01T16:34:18.435Z,30.45
2022-12-01T16:39:25.405Z,32.65
2022-12-01T16:44:28.983Z,31.23
2022-12-01T16:49:33.113Z,58.05
2022-12-01T16:54:33.891Z,32.15
2022-12-01T16:59:34.812Z,30.05
2022-12-01T17:04:37.039Z,29.63
2022-12-01T17:09:37.829Z,29.60
2022-12-01T17:14:38.654Z,30.40
2022-12-01T17:19:40.804Z,31.30
2022-12-01T17:24:41.596Z,31.75
2022-12-01T17:29:46.082Z,31.65
2022-12-01T17:34:48.970Z,31.73
2022-12-01T17:39:51.041Z,30.63
2022-12-01T17:44:52.100Z,30.77
2022-12-01T17:49:54.593Z,31.17
2022-12-01T17:54:56.448Z,31.52
2022-12-01T17:59:57.346Z,29.02
2022-12-01T18:04:59.632Z,32.15
2022-12-01T18:10:00.621Z,30.67
2022-12-01T18:15:01.489Z,30.67
2022-12-01T18:20:03.738Z,30.98
2022-12-01T18:25:04.770Z,31.65
2022-12-01T18:30:07.302Z,30.23
2022-12-01T18:35:10.553Z,30.52
2022-12-01T18:40:12.713Z,30.75
2022-12-01T18:45:17.945Z,30.95
2022-12-01T18:50:23.176Z,30.77
2022-12-01T18:55:23.989Z,31.25
2022-12-01T19:00:24.904Z,29.85
2022-12-01T19:05:27.397Z,30.08
2022-12-01T19:10:28.267Z,28.95
2022-12-01T19:15:30.083Z,30.90
2022-12-01T19:20:32.652Z,28.95
2022-12-01T19:25:33.779Z,28.40
2022-12-01T19:30:34.733Z,30.42
2022-12-01T19:35:36.942Z,28.48
2022-12-01T19:40:38.665Z,29.08
2022-12-01T19:45:40.130Z,31.17
2022-12-01T19:50:42.367Z,30.23
2022-12-01T19:55:43.309Z,30.88
2022-12-01T20:00:44.197Z,29.52
2022-12-01T20:05:46.375Z,29.08
2022-12-01T20:10:48.686Z,31.00
2022-12-01T20:15:49.563Z,30.05
2022-12-01T20:20:51.833Z,28.58
2022-12-01T20:25:52.591Z,28.98
2022-12-01T20:30:53.486Z,29.00
2022-12-01T20:35:55.850Z,28.63
2022-12-01T20:40:56.681Z,30.40
2022-12-01T20:45:57.758Z,30.88
2022-12-01T20:51:02.722Z,29.45
2022-12-01T20:56:03.831Z,29.42
2022-12-01T21:01:09.788Z,30.33
2022-12-01T21:06:13.909Z,31.17
2022-12-01T21:11:20.099Z,30.38
2022-12-01T21:16:26.797Z,31.05
2022-12-01T21:21:30.933Z,29.88
2022-12-01T21:26:31.825Z,31.02
2022-12-01T21:31:33.782Z,29.63
2022-12-01T21:36:36.002Z,29.65
2022-12-01T21:41:37.884Z,29.40
2022-12-01T21:46:41.217Z,29.63
2022-12-01T21:51:43.428Z,32.53
2022-12-01T21:56:44.418Z,29.63
2022-12-01T22:01:45.461Z,30.05
2022-12-01T22:06:49.378Z,32.05
2022-12-01T22:11:53.548Z,29.65
2022-12-01T22:16:57.576Z,28.67
2022-12-01T22:22:02.526Z,31.33
2022-12-01T22:27:27.442Z,31.92
2022-12-01T22:32:47.480Z,30.33
2022-12-01T22:37:51.095Z,30.67
2022-12-01T22:42:51.950Z,30.35
2022-12-01T22:47:57.531Z,31.00
2022-12-01T22:53:07.490Z,30.88
2022-12-01T22:58:25.802Z,29.67
2022-12-01T23:03:27.342Z,31.50
2022-12-01T23:08:29.485Z,30.00
2022-12-01T23:13:30.334Z,30.63
2022-12-01T23:18:32.343Z,29.33
2022-12-01T23:23:36.775Z,29.95
2022-12-01T23:28:39.233Z,30.70
2022-12-01T23:33:40.100Z,30.52
2022-12-01T23:38:43.947Z,31.40
2022-12-01T23:43:46.904Z,29.02
2022-12-01T23:48:50.399Z,31.02
2022-12-01T23:53:53.279Z,30.98
2022-12-01T23:58:56.934Z,28.73
